Time;durP1;ratioP1;P1;durP2;ratioP2;P2;SDS_P1;SDS_P2;PMS_P1;PMS_P2;Temp;Humidity;BMP_temperature;BMP_pressure;BME280_temperature;BME280_humidity;BME280_pressure;Samples;Min_cycle;Max_cycle;Signal;HPM_P1;HPM_P2
2022/08/27 00:00:01;;;;;;;;;;;;;;;;;;5035342;28;19959;-80
2022/08/27 00:02:27;;;;;;;;;;;;;;;;;;5035431;28;19924;-82
2022/08/27 00:04:53;;;;;;;;;;;;;;;;;;5035240;28;19909;-80
2022/08/27 00:07:19;;;;;;;;;;;;;;;;;;5035173;28;19920;-79
2022/08/27 00:09:45;;;;;;;;;;;;;;;;;;5035407;28;19910;-80
2022/08/27 00:12:11;;;;;;;;;;;;;;;;;;5034594;28;20297;-81
2022/08/27 00:14:37;;;;;;;;;;;;;;;;;;5035189;28;19916;-82
2022/08/27 00:17:04;;;;;;;;;;;;;;;;;;5035044;28;19909;-80
2022/08/27 00:19:30;;;;;;;;;;;;;;;;;;5034955;28;19960;-81
2022/08/27 00:21:56;;;;;;;;;;;;;;;;;;5035133;28;20254;-80
2022/08/27 00:24:22;;;;;;;;;;;;;;;;;;5034802;28;20377;-81
2022/08/27 00:26:49;;;;;;;;;;;;;;;;;;5034856;28;19909;-82
2022/08/27 00:29:15;;;;;;;;;;;;;;;;;;5034771;28;19940;-79
2022/08/27 00:31:41;;;;;;;;;;;;;;;;;;5035087;28;19916;-80
2022/08/27 00:34:07;;;;;;;;;;;;;;;;;;5034958;28;19909;-80
2022/08/27 00:36:33;;;;;;;;;;;;;;;;;;5034656;28;19912;-80
2022/08/27 00:38:58;;;;;;;;;;;;;;;;;;5034599;28;19915;-82
2022/08/27 00:41:24;;;;;;;;;;;;;;;;;;5034560;28;19969;-81
2022/08/27 00:43:52;;;;;;;;;;;;;;;;;;5034306;28;19975;-79
2022/08/27 00:46:18;;;;;;;;;;;;;;;;;;5034502;28;19952;-81
2022/08/27 00:48:44;;;;;;;;;;;;;;;;;;5034171;28;19921;-82
2022/08/27 00:51:12;;;;;;;;;;;;;;;;;;5033871;28;20144;-79
2022/08/27 00:53:38;;;;;;;;;;;;;;;;;;5034332;28;20425;-82
2022/08/27 00:56:04;;;;;;;;;;;;;;;;;;5034269;28;20362;-82
2022/08/27 00:58:29;;;;;;;;;;;;;;;;;;5034407;28;19913;-80
2022/08/27 01:00:55;;;;;;;;;;;;;;;;;;5034176;28;20023;-82
2022/08/27 01:03:21;;;;;;;;;;;;;;;;;;5034115;28;19916;-82
2022/08/27 01:05:47;;;;;;;;;;;;;;;;;;5034310;28;19909;-78
2022/08/27 01:08:13;;;;;;;;;;;;;;;;;;5034201;28;20000;-81
2022/08/27 01:10:39;;;;;;;;;;;;;;;;;;5034583;28;19901;-83
2022/08/27 01:13:05;;;;;;;;;;;;;;;;;;5033997;28;19909;-77
2022/08/27 01:15:31;;;;;;;;;;;;;;;;;;5034294;28;20389;-82
2022/08/27 01:17:57;;;;;;;;;;;;;;;;;;5033972;28;19916;-82
2022/08/27 01:20:23;;;;;;;;;;;;;;;;;;5033872;28;19916;-82
2022/08/27 01:22:49;;;;;;;;;;;;;;;;;;5033501;28;20020;-81
2022/08/27 01:25:15;;;;;;;;;;;;;;;;;;5034216;28;19917;-82
2022/08/27 01:27:41;;;;;;;;;;;;;;;;;;5033833;28;19916;-81
2022/08/27 01:30:07;;;;;;;;;;;;;;;;;;5033805;28;19909;-82
2022/08/27 01:32:33;;;;;;;;;;;;;;;;;;5033783;28;19909;-78
2022/08/27 01:34:59;;;;;;;;;;;;;;;;;;5033684;28;19996;-79
2022/08/27 01:37:24;;;;;;;;;;;;;;;;;;5033703;28;19969;-82
2022/08/27 01:39:50;;;;;;;;;;;;;;;;;;5032396;28;19909;-80
2022/08/27 01:42:16;;;;;;;;;;;;;;;;;;5033639;28;20012;-81
2022/08/27 01:44:42;;;;;;;;;;;;;;;;;;5033484;28;19944;-79
2022/08/27 01:47:08;;;;;;;;;;;;;;;;;;5033739;28;19910;-78
2022/08/27 01:49:34;;;;;;;;;;;;;;;;;;5033435;28;19928;-82
2022/08/27 01:52:00;;;;;;;;;;;;;;;;;;5033572;28;19920;-81
2022/08/27 01:54:26;;;;;;;;;;;;;;;;;;5033662;28;19909;-80
2022/08/27 01:56:52;;;;;;;;;;;;;;;;;;5033684;28;19916;-78
2022/08/27 01:59:18;;;;;;;;;;;;;;;;;;5033535;28;19909;-81
2022/08/27 02:01:44;;;;;;;;;;;;;;;;;;5033528;28;20289;-79
2022/08/27 02:04:10;;;;;;;;;;;;;;;;;;5033438;28;19917;-79
2022/08/27 02:06:36;;;;;;;;;;;;;;;;;;5033568;28;19975;-80
2022/08/27 02:09:02;;;;;;;;;;;;;;;;;;5033606;28;20393;-78
2022/08/27 02:11:28;;;;;;;;;;;;;;;;;;5033920;28;19909;-78
2022/08/27 02:13:54;;;;;;;;;;;;;;;;;;5033611;28;19939;-83
2022/08/27 02:16:20;;;;;;;;;;;;;;;;;;5033549;28;20020;-79
2022/08/27 02:18:46;;;;;;;;;;;;;;;;;;5033340;28;20374;-82
2022/08/27 02:21:13;;;;;;;;;;;;;;;;;;5033285;28;19909;-79
2022/08/27 02:23:40;;;;;;;;;;;;;;;;;;5033561;28;19920;-79
2022/08/27 02:26:06;;;;;;;;;;;;;;;;;;5033320;28;19990;-80
2022/08/27 02:28:33;;;;;;;;;;;;;;;;;;5033293;28;19909;-79
2022/08/27 02:30:59;;;;;;;;;;;;;;;;;;5033224;28;19916;-80
2022/08/27 02:33:25;;;;;;;;;;;;;;;;;;5033121;28;19927;-81
2022/08/27 02:35:51;;;;;;;;;;;;;;;;;;5036518;28;19999;-83
2022/08/27 02:38:17;;;;;;;;;;;;;;;;;;5036986;28;20330;-79
2022/08/27 02:40:43;;;;;;;;;;;;;;;;;;5036867;28;19910;-78
2022/08/27 02:43:09;;;;;;;;;;;;;;;;;;5036932;28;19919;-80
2022/08/27 02:45:36;;;;;;;;;;;;;;;;;;5036773;28;20070;-82
2022/08/27 02:48:02;;;;;;;;;;;;;;;;;;5036560;28;20377;-82
2022/08/27 02:50:28;;;;;;;;;;;;;;;;;;5036637;28;19916;-81
2022/08/27 02:52:54;;;;;;;;;;;;;;;;;;5036535;28;19920;-82
2022/08/27 02:55:21;;;;;;;;;;;;;;;;;;5036585;28;19909;-81
2022/08/27 02:57:47;;;;;;;;;;;;;;;;;;5036531;28;19916;-82
2022/08/27 03:00:13;;;;;;;;;;;;;;;;;;5036514;28;19909;-79
2022/08/27 03:02:39;;;;;;;;;;;;;;;;;;5036465;28;20415;-82
2022/08/27 03:05:05;;;;;;;;;;;;;;;;;;5036567;28;19909;-82
2022/08/27 03:07:30;;;;;;;;;;;;;;;;;;5036343;28;20362;-79
2022/08/27 03:09:56;;;;;;;;;;;;;;;;;;5036431;28;19945;-81
2022/08/27 03:12:23;;;;;;;;;;;;;;;;;;5036794;28;19916;-80
2022/08/27 03:14:49;;;;;;;;;;;;;;;;;;5036560;28;19913;-82
2022/08/27 03:20:00;;;;;;;;;;;;;;;;;;5035856;28;19920;-83
2022/08/27 03:22:26;;;;;;;;;;;;;;;;;;5034769;28;19952;-79
2022/08/27 03:24:54;;;;;;;;;;;;;;;;;;5036012;28;19917;-78
2022/08/27 03:27:20;;;;;;;;;;;;;;;;;;5036267;28;20293;-79
2022/08/27 03:29:47;;;;;;;;;;;;;;;;;;5035917;28;19909;-82
2022/08/27 03:32:13;;;;;;;;;;;;;;;;;;5035885;28;19909;-82
2022/08/27 03:34:39;;;;;;;;;;;;;;;;;;5035809;28;19913;-80
2022/08/27 03:37:05;;;;;;;;;;;;;;;;;;5035816;28;19913;-82
2022/08/27 03:39:30;;;;;;;;;;;;;;;;;;5035903;28;20013;-78
2022/08/27 03:41:56;;;;;;;;;;;;;;;;;;5035740;28;19917;-80
2022/08/27 03:44:22;;;;;;;;;;;;;;;;;;5035633;28;19932;-82
2022/08/27 03:46:48;;;;;;;;;;;;;;;;;;5035872;28;20308;-79
2022/08/27 03:49:14;;;;;;;;;;;;;;;;;;5035205;28;19921;-80
2022/08/27 03:51:40;;;;;;;;;;;;;;;;;;5035739;28;20336;-82
2022/08/27 03:54:06;;;;;;;;;;;;;;;;;;5035408;28;19914;-80
2022/08/27 03:56:38;;;;;;;;;;;;;;;;;;5035458;28;19909;-81
2022/08/27 03:59:04;;;;;;;;;;;;;;;;;;5035899;28;19947;-80
2022/08/27 04:01:30;;;;;;;;;;;;;;;;;;5034069;28;19913;-81
2022/08/27 04:03:56;;;;;;;;;;;;;;;;;;5035412;28;19909;-80
2022/08/27 04:06:22;;;;;;;;;;;;;;;;;;5035301;28;19910;-79
2022/08/27 04:08:48;;;;;;;;;;;;;;;;;;5035630;28;19955;-81
2022/08/27 04:11:14;;;;;;;;;;;;;;;;;;5036062;28;20289;-83
2022/08/27 04:13:40;;;;;;;;;;;;;;;;;;5035037;28;19920;-80
2022/08/27 04:16:06;;;;;;;;;;;;;;;;;;5035031;28;19909;-80
2022/08/27 04:18:32;;;;;;;;;;;;;;;;;;5035013;28;20285;-80
2022/08/27 04:20:58;;;;;;;;;;;;;;;;;;5034999;28;19915;-80
2022/08/27 04:23:24;;;;;;;;;;;;;;;;;;5034911;28;19909;-79
2022/08/27 04:25:50;;;;;;;;;;;;;;;;;;5033621;28;19919;-80
2022/08/27 04:28:15;;;;;;;;;;;;;;;;;;5034786;28;19996;-78
2022/08/27 04:30:43;;;;;;;;;;;;;;;;;;5034820;28;19917;-81
2022/08/27 04:33:09;;;;;;;;;;;;;;;;;;5034989;28;19913;-79
2022/08/27 04:35:35;;;;;;;;;;;;;;;;;;5034752;28;20058;-80
2022/08/27 04:38:01;;;;;;;;;;;;;;;;;;5034750;28;19909;-80
2022/08/27 04:41:18;;;;;;;;;;;;;;;;;;5036408;28;19916;-81
2022/08/27 04:43:14;;;;;;;;;;;;;;;;;;5035870;28;19916;-80
2022/08/27 04:45:40;;;;;;;;;;;;;;;;;;5035012;28;20043;-80
2022/08/27 04:48:05;;;;;;;;;;;;;;;;;;5034484;28;20408;-79
2022/08/27 04:50:32;;;;;;;;;;;;;;;;;;5035998;28;19959;-79
2022/08/27 04:52:58;;;;;;;;;;;;;;;;;;5035454;28;19913;-78
2022/08/27 04:55:24;;;;;;;;;;;;;;;;;;5034343;28;19917;-80
2022/08/27 04:57:50;;;;;;;;;;;;;;;;;;5033827;28;19952;-82
2022/08/27 05:00:16;;;;;;;;;;;;;;;;;;5034250;28;19910;-80
2022/08/27 05:02:41;;;;;;;;;;;;;;;;;;5034424;28;19909;-82
2022/08/27 05:05:07;;;;;;;;;;;;;;;;;;5034201;28;20262;-81
2022/08/27 05:07:33;;;;;;;;;;;;;;;;;;5034398;28;19909;-80
2022/08/27 05:09:59;;;;;;;;;;;;;;;;;;5034218;28;19919;-79
2022/08/27 05:12:25;;;;;;;;;;;;;;;;;;5033333;28;19909;-78
2022/08/27 05:14:51;;;;;;;;;;;;;;;;;;5032651;28;19913;-80
2022/08/27 05:17:17;;;;;;;;;;;;;;;;;;5034270;28;19910;-82
2022/08/27 05:19:43;;;;;;;;;;;;;;;;;;5034114;28;20332;-82
2022/08/27 05:22:09;;;;;;;;;;;;;;;;;;5033922;28;20373;-80
2022/08/27 05:24:35;;;;;;;;;;;;;;;;;;5032655;28;19956;-82
2022/08/27 05:27:01;;;;;;;;;;;;;;;;;;5033868;28;19916;-80
2022/08/27 05:29:27;;;;;;;;;;;;;;;;;;5034016;28;20008;-80
2022/08/27 05:31:53;;;;;;;;;;;;;;;;;;5033818;28;19909;-79
2022/08/27 05:34:21;;;;;;;;;;;;;;;;;;5033674;28;19972;-80
2022/08/27 05:36:47;;;;;;;;;;;;;;;;;;5033898;28;20455;-81
2022/08/27 05:39:13;;;;;;;;;;;;;;;;;;5033765;28;19913;-80
2022/08/27 05:41:39;;;;;;;;;;;;;;;;;;5032423;28;20385;-81
2022/08/27 05:44:04;;;;;;;;;;;;;;;;;;5033898;28;19909;-79
2022/08/27 05:46:30;;;;;;;;;;;;;;;;;;5033672;28;19916;-82
2022/08/27 05:48:57;;;;;;;;;;;;;;;;;;5033625;28;20404;-80
2022/08/27 05:51:23;;;;;;;;;;;;;;;;;;5032292;28;19945;-81
2022/08/27 05:53:49;;;;;;;;;;;;;;;;;;5033465;28;20365;-79
2022/08/27 05:56:14;;;;;;;;;;;;;;;;;;5033652;28;19916;-76
2022/08/27 06:01:25;;;;;;;;;;;;;;;;;;5033204;28;20025;-78
2022/08/27 06:03:51;;;;;;;;;;;;;;;;;;5033463;28;19909;-78
2022/08/27 06:06:17;;;;;;;;;;;;;;;;;;5033598;28;19910;-78
2022/08/27 06:08:43;;;;;;;;;;;;;;;;;;5033480;28;19999;-81
2022/08/27 06:11:10;;;;;;;;;;;;;;;;;;5037610;28;20385;-80
2022/08/27 06:13:36;;;;;;;;;;;;;;;;;;5037315;28;19920;-78
2022/08/27 06:16:02;;;;;;;;;;;;;;;;;;5037342;28;19996;-78
2022/08/27 06:18:28;;;;;;;;;;;;;;;;;;5037403;28;19909;-81
2022/08/27 06:20:54;;;;;;;;;;;;;;;;;;5037478;28;19995;-79
2022/08/27 06:23:20;;;;;;;;;;;;;;;;;;5037251;28;19960;-82
2022/08/27 06:25:46;;;;;;;;;;;;;;;;;;5037086;28;20336;-79
2022/08/27 06:28:12;;;;;;;;;;;;;;;;;;5037480;28;19909;-81
2022/08/27 06:30:38;;;;;;;;;;;;;;;;;;5036992;28;20371;-78
2022/08/27 06:33:04;;;;;;;;;;;;;;;;;;5036921;28;19921;-81
2022/08/27 06:35:30;;;;;;;;;;;;;;;;;;5036933;28;19920;-81
2022/08/27 06:37:56;;;;;;;;;;;;;;;;;;5035622;28;19909;-79
2022/08/27 06:40:22;;;;;;;;;;;;;;;;;;5036848;28;19909;-80
2022/08/27 06:42:48;;;;;;;;;;;;;;;;;;5036774;28;19916;-78
2022/08/27 06:45:14;;;;;;;;;;;;;;;;;;5035469;28;20293;-79
2022/08/27 06:47:40;;;;;;;;;;;;;;;;;;5036651;28;19913;-80
2022/08/27 06:50:06;;;;;;;;;;;;;;;;;;5036699;28;19913;-83
2022/08/27 06:52:32;;;;;;;;;;;;;;;;;;5036590;28;19909;-79
2022/08/27 06:54:58;;;;;;;;;;;;;;;;;;5036929;28;20008;-78
2022/08/27 06:57:24;;;;;;;;;;;;;;;;;;5036562;28;19910;-80
2022/08/27 06:59:52;;;;;;;;;;;;;;;;;;5035271;28;19928;-79
2022/08/27 07:02:18;;;;;;;;;;;;;;;;;;5035191;28;19909;-83
2022/08/27 07:04:44;;;;;;;;;;;;;;;;;;5036633;28;19916;-79
2022/08/27 07:07:10;;;;;;;;;;;;;;;;;;5036377;28;19995;-79
2022/08/27 07:09:36;;;;;;;;;;;;;;;;;;5036586;28;20384;-80
2022/08/27 07:12:02;;;;;;;;;;;;;;;;;;5037004;28;19910;-82
2022/08/27 07:14:28;;;;;;;;;;;;;;;;;;5036346;28;19913;-81
2022/08/27 07:16:54;;;;;;;;;;;;;;;;;;5036199;28;19909;-80
2022/08/27 07:19:20;;;;;;;;;;;;;;;;;;5036197;28;19913;-80
2022/08/27 07:21:46;;;;;;;;;;;;;;;;;;5035780;28;19936;-79
2022/08/27 07:24:12;;;;;;;;;;;;;;;;;;5036153;28;19909;-83
2022/08/27 07:26:38;;;;;;;;;;;;;;;;;;5036101;28;20393;-83
2022/08/27 07:29:04;;;;;;;;;;;;;;;;;;5035863;28;19910;-81
2022/08/27 07:31:30;;;;;;;;;;;;;;;;;;5036060;28;19917;-81
2022/08/27 07:33:56;;;;;;;;;;;;;;;;;;5035908;28;19972;-81
2022/08/27 07:36:22;;;;;;;;;;;;;;;;;;5035296;28;19909;-85
2022/08/27 07:38:48;;;;;;;;;;;;;;;;;;5036743;28;19916;-83
2022/08/27 07:41:14;;;;;;;;;;;;;;;;;;5036048;28;19909;-79
2022/08/27 07:46:24;;;;;;;;;;;;;;;;;;5035443;28;19959;-81
2022/08/27 07:48:50;;;;;;;;;;;;;;;;;;5035634;28;20332;-82
2022/08/27 07:51:16;;;;;;;;;;;;;;;;;;5034316;28;19909;-81
2022/08/27 07:53:43;;;;;;;;;;;;;;;;;;5035743;28;19948;-85
2022/08/27 07:56:09;;;;;;;;;;;;;;;;;;5035542;28;19916;-84
2022/08/27 07:58:34;;;;;;;;;;;;;;;;;;5035691;28;19999;-82
2022/08/27 08:01:00;;;;;;;;;;;;;;;;;;5035386;28;19944;-85
2022/08/27 08:03:26;;;;;;;;;;;;;;;;;;5035543;28;19909;-84
2022/08/27 08:05:52;;;;;;;;;;;;;;;;;;5035581;28;20373;-81
2022/08/27 08:08:18;;;;;;;;;;;;;;;;;;5035227;28;19910;-82
2022/08/27 08:10:46;;;;;;;;;;;;;;;;;;5035444;28;19916;-87
2022/08/27 08:13:12;;;;;;;;;;;;;;;;;;5035691;28;19913;-84
2022/08/27 08:15:38;;;;;;;;;;;;;;;;;;5035227;28;19916;-81
2022/08/27 08:18:04;;;;;;;;;;;;;;;;;;5035113;28;19913;-84
2022/08/27 08:20:30;;;;;;;;;;;;;;;;;;5035062;28;19951;-81
2022/08/27 08:22:56;;;;;;;;;;;;;;;;;;5035299;28;19909;-81
2022/08/27 08:25:22;;;;;;;;;;;;;;;;;;5034939;28;19909;-83
2022/08/27 08:27:48;;;;;;;;;;;;;;;;;;5034836;28;19909;-83
2022/08/27 08:30:14;;;;;;;;;;;;;;;;;;5035034;28;19948;-81
2022/08/27 08:32:42;;;;;;;;;;;;;;;;;;5033915;28;19967;-82
2022/08/27 08:35:08;;;;;;;;;;;;;;;;;;5035316;28;20238;-84
2022/08/27 08:37:34;;;;;;;;;;;;;;;;;;5011921;28;19921;-81
2022/08/27 08:40:02;;;;;;;;;;;;;;;;;;5034845;28;19959;-83
2022/08/27 08:42:28;;;;;;;;;;;;;;;;;;5033767;28;19916;-81
2022/08/27 08:44:54;;;;;;;;;;;;;;;;;;5034961;28;20000;-81
2022/08/27 08:47:20;;;;;;;;;;;;;;;;;;5034599;28;19944;-82
2022/08/27 08:49:47;;;;;;;;;;;;;;;;;;5033662;28;19975;-84
2022/08/27 08:52:13;;;;;;;;;;;;;;;;;;5034687;28;19910;-84
2022/08/27 08:54:39;;;;;;;;;;;;;;;;;;5034626;28;20373;-83
2022/08/27 08:57:05;;;;;;;;;;;;;;;;;;5034354;28;19917;-81
2022/08/27 08:59:31;;;;;;;;;;;;;;;;;;5034942;28;20299;-84
2022/08/27 09:01:57;;;;;;;;;;;;;;;;;;5034477;28;19909;-85
2022/08/27 09:04:23;;;;;;;;;;;;;;;;;;5034301;28;20345;-81
2022/08/27 09:06:49;;;;;;;;;;;;;;;;;;5034347;28;19909;-82
2022/08/27 09:09:15;;;;;;;;;;;;;;;;;;5034336;28;19909;-82
2022/08/27 09:11:41;;;;;;;;;;;;;;;;;;5033323;28;19909;-83
2022/08/27 09:14:07;;;;;;;;;;;;;;;;;;5034453;28;19909;-83
2022/08/27 09:16:33;;;;;;;;;;;;;;;;;;5034196;28;20320;-85
2022/08/27 09:18:59;;;;;;;;;;;;;;;;;;5034107;28;19920;-82
2022/08/27 09:21:26;;;;;;;;;;;;;;;;;;5032600;28;19909;-84
2022/08/27 09:23:52;;;;;;;;;;;;;;;;;;5034207;28;20380;-84
2022/08/27 09:26:18;;;;;;;;;;;;;;;;;;5034338;28;19909;-82
2022/08/27 09:31:28;;;;;;;;;;;;;;;;;;5034351;28;19916;-82
2022/08/27 09:33:54;;;;;;;;;;;;;;;;;;5034025;28;20285;-83
2022/08/27 09:36:20;;;;;;;;;;;;;;;;;;5034358;28;19979;-83
2022/08/27 09:38:46;;;;;;;;;;;;;;;;;;5032722;28;20267;-85
2022/08/27 09:41:12;;;;;;;;;;;;;;;;;;5025076;28;19917;-83
2022/08/27 09:43:42;;;;;;;;;;;;;;;;;;5033577;28;20415;-82
2022/08/27 09:46:08;;;;;;;;;;;;;;;;;;5032578;28;19916;-81
2022/08/27 09:48:34;;;;;;;;;;;;;;;;;;5034199;28;19971;-83
2022/08/27 09:51:00;;;;;;;;;;;;;;;;;;5034005;28;19913;-82
2022/08/27 09:53:26;;;;;;;;;;;;;;;;;;5033908;28;19913;-80
2022/08/27 09:55:52;;;;;;;;;;;;;;;;;;5033795;28;19910;-82
2022/08/27 09:58:18;;;;;;;;;;;;;;;;;;5033233;28;19916;-82
2022/08/27 10:00:44;;;;;;;;;;;;;;;;;;5033770;28;19909;-83
2022/08/27 10:03:10;;;;;;;;;;;;;;;;;;5033269;28;19917;-82
2022/08/27 10:05:36;;;;;;;;;;;;;;;;;;5033768;28;19916;-82
2022/08/27 10:08:02;;;;;;;;;;;;;;;;;;5033701;28;19916;-84
2022/08/27 10:10:28;;;;;;;;;;;;;;;;;;5033677;28;19988;-85
2022/08/27 10:12:53;;;;;;;;;;;;;;;;;;5033507;28;19914;-85
2022/08/27 10:15:19;;;;;;;;;;;;;;;;;;5033595;28;19917;-83
2022/08/27 10:17:45;;;;;;;;;;;;;;;;;;5033343;28;20270;-83
2022/08/27 10:20:11;;;;;;;;;;;;;;;;;;5011576;28;20013;-83
2022/08/27 10:22:37;;;;;;;;;;;;;;;;;;5033544;28;20419;-82
2022/08/27 10:25:03;;;;;;;;;;;;;;;;;;5032078;28;19941;-85
2022/08/27 10:27:29;;;;;;;;;;;;;;;;;;5033299;28;20000;-83
2022/08/27 10:29:55;;;;;;;;;;;;;;;;;;5033317;28;20069;-82
2022/08/27 10:32:21;;;;;;;;;;;;;;;;;;5033070;28;20438;-84
2022/08/27 10:34:47;;;;;;;;;;;;;;;;;;5032732;28;20007;-84
2022/08/27 10:37:13;;;;;;;;;;;;;;;;;;5033645;28;19909;-86
2022/08/27 10:39:39;;;;;;;;;;;;;;;;;;5033441;28;20032;-85
2022/08/27 10:42:05;;;;;;;;;;;;;;;;;;5032769;28;20491;-83
2022/08/27 10:44:31;;;;;;;;;;;;;;;;;;5031290;28;20000;-84
2022/08/27 10:46:57;;;;;;;;;;;;;;;;;;5032814;28;19909;-84
2022/08/27 10:49:23;;;;;;;;;;;;;;;;;;5045699;28;20384;-81
2022/08/27 10:51:49;;;;;;;;;;;;;;;;;;5052178;28;19908;-84
2022/08/27 10:54:15;;;;;;;;;;;;;;;;;;5051798;28;20012;-84
2022/08/27 10:56:40;;;;;;;;;;;;;;;;;;5055270;28;20284;-83
2022/08/27 10:59:06;;;;;;;;;;;;;;;;;;5056142;28;19909;-84
2022/08/27 11:01:32;;;;;;;;;;;;;;;;;;5055993;28;19956;-84
2022/08/27 11:03:59;;;;;;;;;;;;;;;;;;5055651;28;19916;-86
2022/08/27 11:06:25;;;;;;;;;;;;;;;;;;5055963;28;19916;-85
2022/08/27 11:08:51;;;;;;;;;;;;;;;;;;5055958;28;19908;-82
2022/08/27 11:11:17;;;;;;;;;;;;;;;;;;5055760;28;19944;-84
2022/08/27 11:13:43;;;;;;;;;;;;;;;;;;5056348;28;19952;-83
2022/08/27 11:16:09;;;;;;;;;;;;;;;;;;5055229;28;19909;-84
2022/08/27 11:18:35;;;;;;;;;;;;;;;;;;5055779;28;19931;-85
2022/08/27 11:21:01;;;;;;;;;;;;;;;;;;5055785;28;19909;-84
2022/08/27 11:23:27;;;;;;;;;;;;;;;;;;5055717;28;19915;-85
2022/08/27 11:25:54;;;;;;;;;;;;;;;;;;5055138;28;19909;-84
2022/08/27 11:28:20;;;;;;;;;;;;;;;;;;5055216;28;19919;-85
2022/08/27 11:30:46;;;;;;;;;;;;;;;;;;5055700;28;20003;-83
2022/08/27 11:33:12;;;;;;;;;;;;;;;;;;5055379;28;20384;-85
2022/08/27 11:35:38;;;;;;;;;;;;;;;;;;5054994;28;19915;-85
2022/08/27 11:38:04;;;;;;;;;;;;;;;;;;5055480;28;19915;-83
2022/08/27 11:40:29;;;;;;;;;;;;;;;;;;5055037;28;19960;-84
2022/08/27 11:42:55;;;;;;;;;;;;;;;;;;5055464;28;19908;-83
2022/08/27 11:45:23;;;;;;;;;;;;;;;;;;5054691;28;19916;-85
2022/08/27 11:47:49;;;;;;;;;;;;;;;;;;5055098;28;20376;-85
2022/08/27 11:50:15;;;;;;;;;;;;;;;;;;5055147;28;19928;-84
2022/08/27 11:52:41;;;;;;;;;;;;;;;;;;5054905;28;19909;-84
2022/08/27 11:55:07;;;;;;;;;;;;;;;;;;5054686;28;20003;-85
2022/08/27 11:57:33;;;;;;;;;;;;;;;;;;5070407;28;19909;-85
2022/08/27 11:59:59;;;;;;;;;;;;;;;;;;5055172;28;19909;-85
2022/08/27 12:02:25;;;;;;;;;;;;;;;;;;5054925;28;19909;-82
2022/08/27 12:04:51;;;;;;;;;;;;;;;;;;5054505;28;19916;-85
2022/08/27 12:07:17;;;;;;;;;;;;;;;;;;5054674;28;19909;-83
2022/08/27 12:09:43;;;;;;;;;;;;;;;;;;5054739;28;20426;-85
2022/08/27 12:12:12;;;;;;;;;;;;;;;;;;5055004;28;19909;-84
2022/08/27 12:14:38;;;;;;;;;;;;;;;;;;5054263;28;19913;-83
2022/08/27 12:17:04;;;;;;;;;;;;;;;;;;5054553;28;19909;-86
2022/08/27 12:19:30;;;;;;;;;;;;;;;;;;5054513;28;20019;-85
2022/08/27 12:21:56;;;;;;;;;;;;;;;;;;5054592;28;19948;-83
2022/08/27 12:24:22;;;;;;;;;;;;;;;;;;5054150;28;19909;-82
2022/08/27 12:26:48;;;;;;;;;;;;;;;;;;5054389;28;19909;-82
2022/08/27 12:29:13;;;;;;;;;;;;;;;;;;5054490;28;20288;-82
2022/08/27 12:31:39;;;;;;;;;;;;;;;;;;5054327;28;19913;-83
2022/08/27 12:34:05;;;;;;;;;;;;;;;;;;5054336;28;19917;-84
2022/08/27 12:36:33;;;;;;;;;;;;;;;;;;5053931;28;19935;-85
2022/08/27 12:39:01;;;;;;;;;;;;;;;;;;5054154;28;20335;-85
2022/08/27 12:41:27;;;;;;;;;;;;;;;;;;5054209;28;19908;-84
2022/08/27 12:43:53;;;;;;;;;;;;;;;;;;5054083;28;19915;-83
2022/08/27 12:46:19;;;;;;;;;;;;;;;;;;5053672;28;19917;-85
2022/08/27 12:48:45;;;;;;;;;;;;;;;;;;5053691;28;19921;-85
2022/08/27 12:51:11;;;;;;;;;;;;;;;;;;5054232;28;19909;-84
2022/08/27 12:53:37;;;;;;;;;;;;;;;;;;5053868;28;19929;-84
2022/08/27 12:56:03;;;;;;;;;;;;;;;;;;5053556;28;19975;-85
2022/08/27 12:58:29;;;;;;;;;;;;;;;;;;5053915;28;20425;-84
2022/08/27 13:00:55;;;;;;;;;;;;;;;;;;5053745;28;20039;-83
2022/08/27 13:03:21;;;;;;;;;;;;;;;;;;5053684;28;19909;-83
2022/08/27 13:05:47;;;;;;;;;;;;;;;;;;5053316;28;20482;-82
2022/08/27 13:08:13;;;;;;;;;;;;;;;;;;5053776;28;20384;-83
2022/08/27 13:10:39;;;;;;;;;;;;;;;;;;5053585;28;19909;-85
2022/08/27 13:13:05;;;;;;;;;;;;;;;;;;5054098;28;19916;-83
2022/08/27 13:15:32;;;;;;;;;;;;;;;;;;5053074;28;19909;-83
2022/08/27 13:17:58;;;;;;;;;;;;;;;;;;5052945;28;20424;-84
2022/08/27 13:20:24;;;;;;;;;;;;;;;;;;5053494;28;19951;-83
2022/08/27 13:22:50;;;;;;;;;;;;;;;;;;5053525;28;19913;-83
2022/08/27 13:25:16;;;;;;;;;;;;;;;;;;5053096;28;19916;-86
2022/08/27 13:27:42;;;;;;;;;;;;;;;;;;5053117;28;19954;-85
2022/08/27 13:30:08;;;;;;;;;;;;;;;;;;5053495;28;19963;-82
2022/08/27 13:32:34;;;;;;;;;;;;;;;;;;5053484;28;19909;-85
2022/08/27 13:35:00;;;;;;;;;;;;;;;;;;5052984;28;19917;-85
2022/08/27 13:37:26;;;;;;;;;;;;;;;;;;5053697;28;19994;-84
2022/08/27 13:39:52;;;;;;;;;;;;;;;;;;5035158;28;20372;-83
2022/08/27 13:42:17;;;;;;;;;;;;;;;;;;5053475;28;19916;-84
2022/08/27 13:44:44;;;;;;;;;;;;;;;;;;5052838;28;19915;-82
2022/08/27 13:47:10;;;;;;;;;;;;;;;;;;5035284;28;19920;-83
2022/08/27 13:49:36;;;;;;;;;;;;;;;;;;5053001;28;19921;-83
2022/08/27 13:52:02;;;;;;;;;;;;;;;;;;5052947;28;20164;-84
2022/08/27 13:54:28;;;;;;;;;;;;;;;;;;5052802;28;19919;-82
2022/08/27 13:56:54;;;;;;;;;;;;;;;;;;5053066;28;19909;-83
2022/08/27 13:59:20;;;;;;;;;;;;;;;;;;5035227;28;19913;-81
2022/08/27 14:01:46;;;;;;;;;;;;;;;;;;5052843;28;19909;-82
2022/08/27 14:04:11;;;;;;;;;;;;;;;;;;5052881;28;19909;-81
2022/08/27 14:06:37;;;;;;;;;;;;;;;;;;5052355;28;19909;-82
2022/08/27 14:09:03;;;;;;;;;;;;;;;;;;5052992;28;19909;-81
2022/08/27 14:11:30;;;;;;;;;;;;;;;;;;5052832;28;19908;-81
2022/08/27 14:13:57;;;;;;;;;;;;;;;;;;5053416;28;19920;-83
2022/08/27 14:16:23;;;;;;;;;;;;;;;;;;5052413;28;19967;-83
2022/08/27 14:18:49;;;;;;;;;;;;;;;;;;5052954;28;19948;-81
2022/08/27 14:21:15;;;;;;;;;;;;;;;;;;5034976;28;19909;-81
2022/08/27 14:23:40;;;;;;;;;;;;;;;;;;5052858;28;19959;-82
2022/08/27 14:26:06;;;;;;;;;;;;;;;;;;5055007;28;19909;-80
2022/08/27 14:28:32;;;;;;;;;;;;;;;;;;5057235;28;19908;-81
2022/08/27 14:30:58;;;;;;;;;;;;;;;;;;5059397;28;19909;-82
2022/08/27 14:33:24;;;;;;;;;;;;;;;;;;5061557;28;19913;-81
2022/08/27 14:35:50;;;;;;;;;;;;;;;;;;5060980;28;19913;-80
2022/08/27 14:38:20;;;;;;;;;;;;;;;;;;5076571;28;20383;-80
2022/08/27 14:40:46;;;;;;;;;;;;;;;;;;5057586;28;19916;-80
2022/08/27 14:43:12;;;;;;;;;;;;;;;;;;5056363;28;19909;-80
2022/08/27 14:45:38;;;;;;;;;;;;;;;;;;5056258;28;19915;-82
2022/08/27 14:48:03;;;;;;;;;;;;;;;;;;5056166;28;19990;-81
2022/08/27 14:50:29;;;;;;;;;;;;;;;;;;5056364;28;20115;-82
2022/08/27 14:52:55;;;;;;;;;;;;;;;;;;5056242;28;19909;-81
2022/08/27 14:55:21;;;;;;;;;;;;;;;;;;5055862;28;20010;-82
2022/08/27 14:57:47;;;;;;;;;;;;;;;;;;5056322;28;19909;-80
2022/08/27 15:00:13;;;;;;;;;;;;;;;;;;5056497;28;20371;-80
2022/08/27 15:02:39;;;;;;;;;;;;;;;;;;5056262;28;20360;-80
2022/08/27 15:05:05;;;;;;;;;;;;;;;;;;5055850;28;19925;-80
2022/08/27 15:07:31;;;;;;;;;;;;;;;;;;5055940;28;20292;-82
2022/08/27 15:09:58;;;;;;;;;;;;;;;;;;5071408;28;20383;-81
2022/08/27 15:12:24;;;;;;;;;;;;;;;;;;5055940;28;19909;-82
2022/08/27 15:14:50;;;;;;;;;;;;;;;;;;5056183;28;19916;-82
2022/08/27 15:17:16;;;;;;;;;;;;;;;;;;5055891;28;20003;-83
2022/08/27 15:19:42;;;;;;;;;;;;;;;;;;5055910;28;19960;-84
2022/08/27 15:22:08;;;;;;;;;;;;;;;;;;5055750;28;19909;-83
2022/08/27 15:24:33;;;;;;;;;;;;;;;;;;5055779;28;19916;-81
2022/08/27 15:26:59;;;;;;;;;;;;;;;;;;5055315;28;19915;-82
2022/08/27 15:29:25;;;;;;;;;;;;;;;;;;5055753;28;19944;-82
2022/08/27 15:31:51;;;;;;;;;;;;;;;;;;5055827;28;19915;-82
2022/08/27 15:34:17;;;;;;;;;;;;;;;;;;5055542;28;19913;-81
2022/08/27 15:36:43;;;;;;;;;;;;;;;;;;5055287;28;19908;-83
2022/08/27 15:39:09;;;;;;;;;;;;;;;;;;5055596;28;19909;-81
2022/08/27 15:41:35;;;;;;;;;;;;;;;;;;5055292;28;19952;-81
2022/08/27 15:44:01;;;;;;;;;;;;;;;;;;5055824;28;19909;-80
2022/08/27 15:46:27;;;;;;;;;;;;;;;;;;5055123;28;19935;-81
2022/08/27 15:48:53;;;;;;;;;;;;;;;;;;5055667;28;20424;-83
2022/08/27 15:51:18;;;;;;;;;;;;;;;;;;5055501;28;19948;-82
2022/08/27 15:53:44;;;;;;;;;;;;;;;;;;5055510;28;19912;-82
2022/08/27 15:56:10;;;;;;;;;;;;;;;;;;5055412;28;19922;-81
2022/08/27 15:58:36;;;;;;;;;;;;;;;;;;5055506;28;19909;-80
2022/08/27 16:01:02;;;;;;;;;;;;;;;;;;5071013;28;19909;-80
2022/08/27 16:03:28;;;;;;;;;;;;;;;;;;5055061;28;20369;-81
2022/08/27 16:05:54;;;;;;;;;;;;;;;;;;5054907;28;19908;-82
2022/08/27 16:08:20;;;;;;;;;;;;;;;;;;5054950;28;19920;-81
2022/08/27 16:10:46;;;;;;;;;;;;;;;;;;5054896;28;19909;-82
2022/08/27 16:13:17;;;;;;;;;;;;;;;;;;5055426;28;19988;-82
2022/08/27 16:15:46;;;;;;;;;;;;;;;;;;5054442;28;19999;-81
2022/08/27 16:18:15;;;;;;;;;;;;;;;;;;5054766;28;19908;-82
2022/08/27 16:20:44;;;;;;;;;;;;;;;;;;5054693;28;19909;-82
2022/08/27 16:23:12;;;;;;;;;;;;;;;;;;5054659;28;19956;-81
2022/08/27 16:25:39;;;;;;;;;;;;;;;;;;5054246;28;20220;-82
2022/08/27 16:28:05;;;;;;;;;;;;;;;;;;5054427;28;19962;-82
2022/08/27 16:30:37;;;;;;;;;;;;;;;;;;5054404;28;19913;-80
2022/08/27 16:33:03;;;;;;;;;;;;;;;;;;5054537;28;20442;-80
2022/08/27 16:35:30;;;;;;;;;;;;;;;;;;5054113;28;19909;-81
2022/08/27 16:37:56;;;;;;;;;;;;;;;;;;5054389;28;19916;-82
2022/08/27 16:40:26;;;;;;;;;;;;;;;;;;5054034;28;20062;-80
2022/08/27 16:42:53;;;;;;;;;;;;;;;;;;5054253;28;19909;-79
2022/08/27 16:45:21;;;;;;;;;;;;;;;;;;5053923;28;19909;-81
2022/08/27 16:50:35;;;;;;;;;;;;;;;;;;5033822;28;19927;-81